sensor_id;sensor_type;location;lat;lon;timestamp;P1;durP1;ratioP1;P2;durP2;ratioP2
33403;SDS011;19751;40.274;18.268;2023-08-01T00:00:04;7.55;;;6.85;;
33403;SDS011;19751;40.274;18.268;2023-08-01T00:02:32;7.40;;;6.55;;
33403;SDS011;19751;40.274;18.268;2023-08-01T00:04:58;8.80;;;6.82;;
33403;SDS011;19751;40.274;18.268;2023-08-01T00:07:24;8.20;;;7.00;;
33403;SDS011;19751;40.274;18.268;2023-08-01T00:09:51;7.85;;;7.00;;
33403;SDS011;19751;40.274;18.268;2023-08-01T00:12:16;7.53;;;6.82;;
33403;SDS011;19751;40.274;18.268;2023-08-01T00:14:42;8.38;;;7.38;;
33403;SDS011;19751;40.274;18.268;2023-08-01T00:17:07;7.05;;;6.38;;
33403;SDS011;19751;40.274;18.268;2023-08-01T00:19:33;8.63;;;6.68;;
33403;SDS011;19751;40.274;18.268;2023-08-01T00:21:59;7.18;;;6.40;;
33403;SDS011;19751;40.274;18.268;2023-08-01T00:24:24;7.53;;;6.80;;
33403;SDS011;19751;40.274;18.268;2023-08-01T00:26:50;7.45;;;6.75;;
33403;SDS011;19751;40.274;18.268;2023-08-01T00:29:15;7.90;;;6.45;;
33403;SDS011;19751;40.274;18.268;2023-08-01T00:31:40;6.85;;;6.35;;
33403;SDS011;19751;40.274;18.268;2023-08-01T00:34:06;6.50;;;5.90;;
33403;SDS011;19751;40.274;18.268;2023-08-01T00:36:32;6.38;;;5.88;;
33403;SDS011;19751;40.274;18.268;2023-08-01T00:38:57;7.53;;;6.70;;
33403;SDS011;19751;40.274;18.268;2023-08-01T00:41:23;5.95;;;5.45;;
33403;SDS011;19751;40.274;18.268;2023-08-01T00:43:48;7.40;;;6.70;;
33403;SDS011;19751;40.274;18.268;2023-08-01T00:46:14;6.63;;;6.05;;
33403;SDS011;19751;40.274;18.268;2023-08-01T00:48:40;6.88;;;6.18;;
33403;SDS011;19751;40.274;18.268;2023-08-01T00:51:05;6.47;;;5.78;;
33403;SDS011;19751;40.274;18.268;2023-08-01T00:53:33;6.47;;;5.80;;
33403;SDS011;19751;40.274;18.268;2023-08-01T00:56:00;6.13;;;5.55;;
33403;SDS011;19751;40.274;18.268;2023-08-01T00:58:25;6.82;;;6.18;;
33403;SDS011;19751;40.274;18.268;2023-08-01T01:00:51;6.07;;;5.47;;
33403;SDS011;19751;40.274;18.268;2023-08-01T01:03:17;6.47;;;5.80;;
33403;SDS011;19751;40.274;18.268;2023-08-01T01:05:47;6.05;;;5.53;;
33403;SDS011;19751;40.274;18.268;2023-08-01T01:08:18;6.32;;;5.80;;
33403;SDS011;19751;40.274;18.268;2023-08-01T01:10:44;6.63;;;5.97;;
33403;SDS011;19751;40.274;18.268;2023-08-01T01:13:10;7.28;;;6.60;;
33403;SDS011;19751;40.274;18.268;2023-08-01T01:15:35;6.32;;;5.82;;
33403;SDS011;19751;40.274;18.268;2023-08-01T01:18:00;7.28;;;5.95;;
33403;SDS011;19751;40.274;18.268;2023-08-01T01:20:29;6.80;;;6.20;;
33403;SDS011;19751;40.274;18.268;2023-08-01T01:25:26;6.55;;;5.85;;
33403;SDS011;19751;40.274;18.268;2023-08-01T01:27:53;7.53;;;6.82;;
33403;SDS011;19751;40.274;18.268;2023-08-01T01:30:19;6.65;;;6.05;;
33403;SDS011;19751;40.274;18.268;2023-08-01T01:32:46;6.28;;;5.78;;
33403;SDS011;19751;40.274;18.268;2023-08-01T01:35:12;6.95;;;6.32;;
33403;SDS011;19751;40.274;18.268;2023-08-01T01:37:37;6.47;;;5.97;;
33403;SDS011;19751;40.274;18.268;2023-08-01T01:40:03;7.05;;;6.30;;
33403;SDS011;19751;40.274;18.268;2023-08-01T01:42:29;7.07;;;5.88;;
33403;SDS011;19751;40.274;18.268;2023-08-01T01:44:54;6.47;;;5.88;;
33403;SDS011;19751;40.274;18.268;2023-08-01T01:47:20;7.47;;;6.78;;
33403;SDS011;19751;40.274;18.268;2023-08-01T01:49:45;6.20;;;5.60;;
33403;SDS011;19751;40.274;18.268;2023-08-01T01:52:11;6.40;;;5.80;;
33403;SDS011;19751;40.274;18.268;2023-08-01T01:54:36;7.60;;;6.25;;
33403;SDS011;19751;40.274;18.268;2023-08-01T01:57:02;6.68;;;5.97;;
33403;SDS011;19751;40.274;18.268;2023-08-01T01:59:27;7.40;;;6.40;;
33403;SDS011;19751;40.274;18.268;2023-08-01T02:01:53;6.95;;;6.25;;
33403;SDS011;19751;40.274;18.268;2023-08-01T02:04:18;7.43;;;5.95;;
33403;SDS011;19751;40.274;18.268;2023-08-01T02:06:44;6.63;;;6.03;;
33403;SDS011;19751;40.274;18.268;2023-08-01T02:09:09;6.65;;;5.80;;
33403;SDS011;19751;40.274;18.268;2023-08-01T02:11:35;7.70;;;6.13;;
33403;SDS011;19751;40.274;18.268;2023-08-01T02:14:00;6.55;;;5.95;;
33403;SDS011;19751;40.274;18.268;2023-08-01T02:16:28;10.15;;;6.63;;
33403;SDS011;19751;40.274;18.268;2023-08-01T02:18:53;6.18;;;5.68;;
33403;SDS011;19751;40.274;18.268;2023-08-01T02:21:19;6.57;;;5.97;;
33403;SDS011;19751;40.274;18.268;2023-08-01T02:23:44;7.30;;;6.68;;
33403;SDS011;19751;40.274;18.268;2023-08-01T02:26:10;6.75;;;6.13;;
33403;SDS011;19751;40.274;18.268;2023-08-01T02:28:35;6.53;;;4.97;;
33403;SDS011;19751;40.274;18.268;2023-08-01T02:31:01;5.78;;;5.28;;
33403;SDS011;19751;40.274;18.268;2023-08-01T02:33:26;7.45;;;5.93;;
33403;SDS011;19751;40.274;18.268;2023-08-01T02:35:52;6.40;;;5.80;;
33403;SDS011;19751;40.274;18.268;2023-08-01T02:38:17;6.15;;;5.65;;
33403;SDS011;19751;40.274;18.268;2023-08-01T02:40:43;6.55;;;5.70;;
33403;SDS011;19751;40.274;18.268;2023-08-01T02:43:08;6.10;;;5.47;;
33403;SDS011;19751;40.274;18.268;2023-08-01T02:45:37;8.07;;;5.95;;
33403;SDS011;19751;40.274;18.268;2023-08-01T02:48:02;6.80;;;6.15;;
33403;SDS011;19751;40.274;18.268;2023-08-01T02:50:28;6.28;;;5.78;;
33403;SDS011;19751;40.274;18.268;2023-08-01T02:52:53;6.93;;;6.25;;
33403;SDS011;19751;40.274;18.268;2023-08-01T02:55:19;6.40;;;5.80;;
33403;SDS011;19751;40.274;18.268;2023-08-01T02:57:44;6.60;;;5.97;;
33403;SDS011;19751;40.274;18.268;2023-08-01T03:00:10;7.47;;;5.90;;
33403;SDS011;19751;40.274;18.268;2023-08-01T03:02:37;6.20;;;5.57;;
33403;SDS011;19751;40.274;18.268;2023-08-01T03:05:05;7.90;;;6.90;;
33403;SDS011;19751;40.274;18.268;2023-08-01T03:07:32;5.68;;;5.15;;
33403;SDS011;19751;40.274;18.268;2023-08-01T03:09:58;6.45;;;5.85;;
33403;SDS011;19751;40.274;18.268;2023-08-01T03:12:23;6.72;;;6.13;;
33403;SDS011;19751;40.274;18.268;2023-08-01T03:14:49;8.32;;;6.40;;
33403;SDS011;19751;40.274;18.268;2023-08-01T03:17:14;9.82;;;6.38;;
33403;SDS011;19751;40.274;18.268;2023-08-01T03:19:40;6.50;;;5.82;;
33403;SDS011;19751;40.274;18.268;2023-08-01T03:22:06;6.53;;;5.88;;
33403;SDS011;19751;40.274;18.268;2023-08-01T03:24:32;8.65;;;7.20;;
33403;SDS011;19751;40.274;18.268;2023-08-01T03:26:58;7.05;;;5.55;;
33403;SDS011;19751;40.274;18.268;2023-08-01T03:29:23;7.28;;;6.55;;
33403;SDS011;19751;40.274;18.268;2023-08-01T03:31:49;8.68;;;6.40;;
33403;SDS011;19751;40.274;18.268;2023-08-01T03:34:14;9.80;;;6.80;;
33403;SDS011;19751;40.274;18.268;2023-08-01T03:36:40;7.45;;;6.25;;
33403;SDS011;19751;40.274;18.268;2023-08-01T03:39:05;8.13;;;6.05;;
33403;SDS011;19751;40.274;18.268;2023-08-01T03:41:31;11.35;;;7.20;;
33403;SDS011;19751;40.274;18.268;2023-08-01T03:43:57;9.68;;;6.65;;
33403;SDS011;19751;40.274;18.268;2023-08-01T03:46:23;8.00;;;6.82;;
33403;SDS011;19751;40.274;18.268;2023-08-01T03:48:48;7.15;;;6.40;;
33403;SDS011;19751;40.274;18.268;2023-08-01T03:51:14;8.38;;;6.60;;
33403;SDS011;19751;40.274;18.268;2023-08-01T03:53:40;7.90;;;7.10;;
33403;SDS011;19751;40.274;18.268;2023-08-01T03:56:07;8.68;;;6.57;;
33403;SDS011;19751;40.274;18.268;2023-08-01T03:58:32;7.65;;;6.28;;
33403;SDS011;19751;40.274;18.268;2023-08-01T04:00:58;6.82;;;6.18;;
33403;SDS011;19751;40.274;18.268;2023-08-01T04:03:23;7.53;;;5.82;;
33403;SDS011;19751;40.274;18.268;2023-08-01T04:05:49;6.85;;;6.13;;
33403;SDS011;19751;40.274;18.268;2023-08-01T04:08:14;6.57;;;5.97;;
33403;SDS011;19751;40.274;18.268;2023-08-01T04:10:40;7.57;;;6.72;;
33403;SDS011;19751;40.274;18.268;2023-08-01T04:13:05;6.10;;;5.50;;
33403;SDS011;19751;40.274;18.268;2023-08-01T04:15:31;5.95;;;4.93;;
33403;SDS011;19751;40.274;18.268;2023-08-01T04:17:56;5.32;;;4.75;;
33403;SDS011;19751;40.274;18.268;2023-08-01T04:20:22;6.30;;;5.03;;
33403;SDS011;19751;40.274;18.268;2023-08-01T04:22:47;7.07;;;5.50;;
33403;SDS011;19751;40.274;18.268;2023-08-01T04:25:13;7.22;;;5.50;;
33403;SDS011;19751;40.274;18.268;2023-08-01T04:27:38;8.18;;;5.75;;
33403;SDS011;19751;40.274;18.268;2023-08-01T04:30:04;5.75;;;5.18;;
33403;SDS011;19751;40.274;18.268;2023-08-01T04:32:30;6.05;;;5.55;;
33403;SDS011;19751;40.274;18.268;2023-08-01T04:34:55;5.70;;;4.85;;
33403;SDS011;19751;40.274;18.268;2023-08-01T04:37:21;6.00;;;5.40;;
33403;SDS011;19751;40.274;18.268;2023-08-01T04:39:48;5.43;;;4.93;;
33403;SDS011;19751;40.274;18.268;2023-08-01T04:42:13;5.40;;;4.90;;
33403;SDS011;19751;40.274;18.268;2023-08-01T04:44:39;7.20;;;4.82;;
33403;SDS011;19751;40.274;18.268;2023-08-01T04:47:04;5.72;;;4.53;;
33403;SDS011;19751;40.274;18.268;2023-08-01T04:49:30;5.22;;;4.72;;
33403;SDS011;19751;40.274;18.268;2023-08-01T04:51:56;6.93;;;4.60;;
33403;SDS011;19751;40.274;18.268;2023-08-01T04:54:21;6.72;;;4.72;;
33403;SDS011;19751;40.274;18.268;2023-08-01T04:56:47;6.90;;;4.90;;
33403;SDS011;19751;40.274;18.268;2023-08-01T04:59:13;6.75;;;4.90;;
33403;SDS011;19751;40.274;18.268;2023-08-01T05:01:38;6.82;;;5.05;;
33403;SDS011;19751;40.274;18.268;2023-08-01T05:04:03;16.77;;;7.28;;
33403;SDS011;19751;40.274;18.268;2023-08-01T05:06:29;13.40;;;5.80;;
33403;SDS011;19751;40.274;18.268;2023-08-01T05:08:54;9.45;;;5.45;;
33403;SDS011;19751;40.274;18.268;2023-08-01T05:11:20;9.00;;;5.13;;
33403;SDS011;19751;40.274;18.268;2023-08-01T05:13:46;9.48;;;4.63;;
33403;SDS011;19751;40.274;18.268;2023-08-01T05:16:11;6.65;;;4.97;;
33403;SDS011;19751;40.274;18.268;2023-08-01T05:18:37;11.20;;;5.03;;
33403;SDS011;19751;40.274;18.268;2023-08-01T05:21:02;4.82;;;4.43;;
33403;SDS011;19751;40.274;18.268;2023-08-01T05:23:28;5.53;;;4.05;;
33403;SDS011;19751;40.274;18.268;2023-08-01T05:25:53;9.50;;;4.55;;
33403;SDS011;19751;40.274;18.268;2023-08-01T05:28:19;7.38;;;3.88;;
33403;SDS011;19751;40.274;18.268;2023-08-01T05:30:44;4.10;;;3.70;;
33403;SDS011;19751;40.274;18.268;2023-08-01T05:33:10;7.65;;;4.10;;
33403;SDS011;19751;40.274;18.268;2023-08-01T05:35:36;6.45;;;3.75;;
33403;SDS011;19751;40.274;18.268;2023-08-01T05:38:01;7.55;;;4.22;;
33403;SDS011;19751;40.274;18.268;2023-08-01T05:40:26;9.63;;;4.35;;
33403;SDS011;19751;40.274;18.268;2023-08-01T05:42:52;15.15;;;5.75;;
33403;SDS011;19751;40.274;18.268;2023-08-01T05:45:18;12.23;;;5.05;;
33403;SDS011;19751;40.274;18.268;2023-08-01T05:47:43;11.60;;;5.05;;
33403;SDS011;19751;40.274;18.268;2023-08-01T05:50:09;7.63;;;4.30;;
33403;SDS011;19751;40.274;18.268;2023-08-01T05:52:35;10.13;;;4.82;;
33403;SDS011;19751;40.274;18.268;2023-08-01T05:55:01;6.20;;;4.38;;
33403;SDS011;19751;40.274;18.268;2023-08-01T05:57:26;4.75;;;3.60;;
33403;SDS011;19751;40.274;18.268;2023-08-01T05:59:52;6.40;;;3.88;;
33403;SDS011;19751;40.274;18.268;2023-08-01T06:02:18;7.70;;;4.03;;
33403;SDS011;19751;40.274;18.268;2023-08-01T06:04:44;6.75;;;3.75;;
33403;SDS011;19751;40.274;18.268;2023-08-01T06:07:09;9.82;;;4.95;;
33403;SDS011;19751;40.274;18.268;2023-08-01T06:09:35;12.25;;;5.13;;
33403;SDS011;19751;40.274;18.268;2023-08-01T06:12:00;9.55;;;4.35;;
33403;SDS011;19751;40.274;18.268;2023-08-01T06:14:26;7.95;;;4.55;;
33403;SDS011;19751;40.274;18.268;2023-08-01T06:16:51;6.72;;;4.10;;
33403;SDS011;19751;40.274;18.268;2023-08-01T06:19:17;8.90;;;3.70;;
33403;SDS011;19751;40.274;18.268;2023-08-01T06:21:42;3.85;;;3.50;;
33403;SDS011;19751;40.274;18.268;2023-08-01T06:24:08;4.10;;;3.65;;
33403;SDS011;19751;40.274;18.268;2023-08-01T06:26:34;9.40;;;3.63;;
33403;SDS011;19751;40.274;18.268;2023-08-01T06:28:59;5.68;;;3.95;;
33403;SDS011;19751;40.274;18.268;2023-08-01T06:31:25;3.65;;;3.35;;
33403;SDS011;19751;40.274;18.268;2023-08-01T06:33:50;9.20;;;4.53;;
33403;SDS011;19751;40.274;18.268;2023-08-01T06:36:16;6.07;;;3.90;;
33403;SDS011;19751;40.274;18.268;2023-08-01T06:38:42;4.78;;;4.35;;
33403;SDS011;19751;40.274;18.268;2023-08-01T06:41:08;4.35;;;3.95;;
33403;SDS011;19751;40.274;18.268;2023-08-01T06:43:34;5.10;;;4.15;;
33403;SDS011;19751;40.274;18.268;2023-08-01T06:46:02;4.00;;;3.58;;
33403;SDS011;19751;40.274;18.268;2023-08-01T06:48:28;4.03;;;3.63;;
33403;SDS011;19751;40.274;18.268;2023-08-01T06:50:54;3.85;;;3.42;;
33403;SDS011;19751;40.274;18.268;2023-08-01T06:53:19;3.28;;;3.05;;
33403;SDS011;19751;40.274;18.268;2023-08-01T06:55:46;4.32;;;3.50;;
33403;SDS011;19751;40.274;18.268;2023-08-01T06:58:11;4.07;;;3.72;;
33403;SDS011;19751;40.274;18.268;2023-08-01T07:00:37;3.67;;;3.15;;
33403;SDS011;19751;40.274;18.268;2023-08-01T07:03:02;3.70;;;3.22;;
33403;SDS011;19751;40.274;18.268;2023-08-01T07:05:28;3.60;;;2.97;;
33403;SDS011;19751;40.274;18.268;2023-08-01T07:07:54;3.65;;;3.35;;
33403;SDS011;19751;40.274;18.268;2023-08-01T07:10:19;3.22;;;2.92;;
33403;SDS011;19751;40.274;18.268;2023-08-01T07:12:45;4.82;;;3.60;;
33403;SDS011;19751;40.274;18.268;2023-08-01T07:15:10;8.82;;;3.90;;
33403;SDS011;19751;40.274;18.268;2023-08-01T07:17:36;4.85;;;3.28;;
33403;SDS011;19751;40.274;18.268;2023-08-01T07:20:01;5.43;;;3.28;;
33403;SDS011;19751;40.274;18.268;2023-08-01T07:22:27;4.00;;;3.63;;
33403;SDS011;19751;40.274;18.268;2023-08-01T07:24:53;5.38;;;4.10;;
33403;SDS011;19751;40.274;18.268;2023-08-01T07:27:19;3.58;;;3.20;;
33403;SDS011;19751;40.274;18.268;2023-08-01T07:29:45;5.80;;;3.78;;
33403;SDS011;19751;40.274;18.268;2023-08-01T07:32:11;4.30;;;3.20;;
33403;SDS011;19751;40.274;18.268;2023-08-01T07:34:36;5.25;;;3.33;;
33403;SDS011;19751;40.274;18.268;2023-08-01T07:37:02;5.88;;;3.10;;
33403;SDS011;19751;40.274;18.268;2023-08-01T07:39:28;5.00;;;3.40;;
33403;SDS011;19751;40.274;18.268;2023-08-01T07:41:54;4.28;;;3.30;;
33403;SDS011;19751;40.274;18.268;2023-08-01T07:44:20;3.67;;;3.38;;
33403;SDS011;19751;40.274;18.268;2023-08-01T07:46:46;4.25;;;3.47;;
33403;SDS011;19751;40.274;18.268;2023-08-01T07:49:11;3.72;;;3.25;;
33403;SDS011;19751;40.274;18.268;2023-08-01T07:51:37;3.65;;;2.85;;
33403;SDS011;19751;40.274;18.268;2023-08-01T07:54:02;5.45;;;3.50;;
33403;SDS011;19751;40.274;18.268;2023-08-01T07:56:28;7.35;;;3.28;;
33403;SDS011;19751;40.274;18.268;2023-08-01T07:58:53;4.90;;;3.25;;
33403;SDS011;19751;40.274;18.268;2023-08-01T08:01:19;3.92;;;3.28;;
33403;SDS011;19751;40.274;18.268;2023-08-01T08:03:44;7.97;;;3.20;;
33403;SDS011;19751;40.274;18.268;2023-08-01T08:06:10;4.20;;;3.78;;
33403;SDS011;19751;40.274;18.268;2023-08-01T08:08:36;3.53;;;3.22;;
33403;SDS011;19751;40.274;18.268;2023-08-01T08:11:04;6.10;;;4.43;;
33403;SDS011;19751;40.274;18.268;2023-08-01T08:13:29;6.70;;;3.15;;
33403;SDS011;19751;40.274;18.268;2023-08-01T08:15:55;4.15;;;3.40;;
33403;SDS011;19751;40.274;18.268;2023-08-01T08:18:22;3.58;;;3.28;;
33403;SDS011;19751;40.274;18.268;2023-08-01T08:20:48;2.72;;;2.53;;
33403;SDS011;19751;40.274;18.268;2023-08-01T08:23:13;4.07;;;2.92;;
33403;SDS011;19751;40.274;18.268;2023-08-01T08:25:39;6.20;;;3.60;;
33403;SDS011;19751;40.274;18.268;2023-08-01T08:28:05;4.55;;;3.60;;
33403;SDS011;19751;40.274;18.268;2023-08-01T08:30:31;3.47;;;3.17;;
33403;SDS011;19751;40.274;18.268;2023-08-01T08:32:59;5.40;;;4.65;;
33403;SDS011;19751;40.274;18.268;2023-08-01T08:35:30;4.13;;;3.72;;
33403;SDS011;19751;40.274;18.268;2023-08-01T08:37:57;3.50;;;3.05;;
33403;SDS011;19751;40.274;18.268;2023-08-01T08:40:23;3.42;;;3.13;;
33403;SDS011;19751;40.274;18.268;2023-08-01T08:42:49;3.38;;;3.08;;
33403;SDS011;19751;40.274;18.268;2023-08-01T08:45:18;4.18;;;3.80;;
33403;SDS011;19751;40.274;18.268;2023-08-01T08:47:45;3.67;;;2.67;;
33403;SDS011;19751;40.274;18.268;2023-08-01T08:50:18;3.50;;;2.97;;
33403;SDS011;19751;40.274;18.268;2023-08-01T08:52:45;3.38;;;3.08;;
33403;SDS011;19751;40.274;18.268;2023-08-01T08:55:11;2.58;;;2.38;;
33403;SDS011;19751;40.274;18.268;2023-08-01T08:57:37;4.18;;;3.20;;
33403;SDS011;19751;40.274;18.268;2023-08-01T09:00:05;3.42;;;3.22;;
33403;SDS011;19751;40.274;18.268;2023-08-01T09:02:32;2.97;;;2.78;;
33403;SDS011;19751;40.274;18.268;2023-08-01T09:04:58;3.40;;;3.10;;
33403;SDS011;19751;40.274;18.268;2023-08-01T09:07:24;3.58;;;3.30;;
33403;SDS011;19751;40.274;18.268;2023-08-01T09:09:55;3.33;;;3.03;;
33403;SDS011;19751;40.274;18.268;2023-08-01T09:12:21;7.10;;;4.10;;
33403;SDS011;19751;40.274;18.268;2023-08-01T09:14:48;4.40;;;3.25;;
33403;SDS011;19751;40.274;18.268;2023-08-01T09:17:15;3.60;;;3.30;;
33403;SDS011;19751;40.274;18.268;2023-08-01T09:19:43;3.47;;;3.17;;
33403;SDS011;19751;40.274;18.268;2023-08-01T09:22:10;3.42;;;3.10;;
33403;SDS011;19751;40.274;18.268;2023-08-01T09:24:37;3.65;;;3.35;;
33403;SDS011;19751;40.274;18.268;2023-08-01T09:27:02;3.88;;;3.25;;
33403;SDS011;19751;40.274;18.268;2023-08-01T09:29:33;3.70;;;3.05;;
33403;SDS011;19751;40.274;18.268;2023-08-01T09:31:59;3.40;;;2.92;;
33403;SDS011;19751;40.274;18.268;2023-08-01T09:34:25;3.50;;;3.20;;
33403;SDS011;19751;40.274;18.268;2023-08-01T09:36:57;11.57;;;3.78;;
33403;SDS011;19751;40.274;18.268;2023-08-01T09:39:24;5.45;;;3.25;;
33403;SDS011;19751;40.274;18.268;2023-08-01T09:41:59;8.85;;;3.38;;
33403;SDS011;19751;40.274;18.268;2023-08-01T09:44:27;3.80;;;2.65;;
33403;SDS011;19751;40.274;18.268;2023-08-01T09:47:00;3.08;;;2.80;;
33403;SDS011;19751;40.274;18.268;2023-08-01T09:49:28;3.13;;;2.83;;
33403;SDS011;19751;40.274;18.268;2023-08-01T09:51:54;3.05;;;2.85;;
33403;SDS011;19751;40.274;18.268;2023-08-01T09:54:20;2.95;;;2.75;;
33403;SDS011;19751;40.274;18.268;2023-08-01T09:56:47;7.78;;;3.63;;
33403;SDS011;19751;40.274;18.268;2023-08-01T09:59:18;3.15;;;2.90;;
33403;SDS011;19751;40.274;18.268;2023-08-01T10:01:46;3.40;;;2.85;;
33403;SDS011;19751;40.274;18.268;2023-08-01T10:04:13;3.38;;;3.08;;
33403;SDS011;19751;40.274;18.268;2023-08-01T10:06:41;3.33;;;3.10;;
33403;SDS011;19751;40.274;18.268;2023-08-01T10:09:10;4.18;;;3.22;;
33403;SDS011;19751;40.274;18.268;2023-08-01T10:11:38;3.65;;;3.35;;
33403;SDS011;19751;40.274;18.268;2023-08-01T10:14:05;4.18;;;2.70;;
33403;SDS011;19751;40.274;18.268;2023-08-01T10:16:31;3.50;;;2.95;;
33403;SDS011;19751;40.274;18.268;2023-08-01T10:18:58;4.20;;;2.75;;
33403;SDS011;19751;40.274;18.268;2023-08-01T10:21:24;3.08;;;2.78;;
33403;SDS011;19751;40.274;18.268;2023-08-01T10:23:52;2.63;;;2.42;;
33403;SDS011;19751;40.274;18.268;2023-08-01T10:26:19;3.50;;;3.20;;
33403;SDS011;19751;40.274;18.268;2023-08-01T10:28:51;3.47;;;2.95;;
33403;SDS011;19751;40.274;18.268;2023-08-01T10:31:18;3.53;;;2.78;;
33403;SDS011;19751;40.274;18.268;2023-08-01T10:33:45;3.55;;;3.22;;
33403;SDS011;19751;40.274;18.268;2023-08-01T10:36:15;3.50;;;3.03;;
33403;SDS011;19751;40.274;18.268;2023-08-01T10:41:25;3.28;;;2.97;;
33403;SDS011;19751;40.274;18.268;2023-08-01T10:43:52;3.10;;;2.85;;
33403;SDS011;19751;40.274;18.268;2023-08-01T10:46:54;2.97;;;2.75;;
33403;SDS011;19751;40.274;18.268;2023-08-01T10:49:32;3.25;;;2.92;;
33403;SDS011;19751;40.274;18.268;2023-08-01T10:54:46;3.35;;;3.00;;
33403;SDS011;19751;40.274;18.268;2023-08-01T10:57:15;3.83;;;3.53;;
33403;SDS011;19751;40.274;18.268;2023-08-01T10:59:42;3.17;;;2.88;;
33403;SDS011;19751;40.274;18.268;2023-08-01T11:02:09;3.35;;;3.05;;
33403;SDS011;19751;40.274;18.268;2023-08-01T11:04:35;5.25;;;3.45;;
33403;SDS011;19751;40.274;18.268;2023-08-01T11:07:00;5.25;;;3.20;;
33403;SDS011;19751;40.274;18.268;2023-08-01T11:09:27;5.28;;;3.35;;
33403;SDS011;19751;40.274;18.268;2023-08-01T11:11:53;3.47;;;2.80;;
33403;SDS011;19751;40.274;18.268;2023-08-01T11:14:21;3.00;;;2.72;;
33403;SDS011;19751;40.274;18.268;2023-08-01T11:16:48;3.45;;;3.13;;
33403;SDS011;19751;40.274;18.268;2023-08-01T11:19:22;3.78;;;3.45;;
33403;SDS011;19751;40.274;18.268;2023-08-01T11:21:52;3.88;;;3.58;;
33403;SDS011;19751;40.274;18.268;2023-08-01T11:24:19;5.35;;;4.28;;
33403;SDS011;19751;40.274;18.268;2023-08-01T11:26:46;3.67;;;3.20;;
33403;SDS011;19751;40.274;18.268;2023-08-01T11:29:14;4.63;;;3.05;;
33403;SDS011;19751;40.274;18.268;2023-08-01T11:31:40;3.55;;;3.10;;
33403;SDS011;19751;40.274;18.268;2023-08-01T11:34:17;4.32;;;2.95;;
33403;SDS011;19751;40.274;18.268;2023-08-01T11:36:43;3.63;;;3.30;;
33403;SDS011;19751;40.274;18.268;2023-08-01T11:39:11;3.92;;;3.63;;
33403;SDS011;19751;40.274;18.268;2023-08-01T11:41:37;3.60;;;3.30;;
33403;SDS011;19751;40.274;18.268;2023-08-01T11:44:04;5.43;;;3.45;;
33403;SDS011;19751;40.274;18.268;2023-08-01T11:46:31;3.88;;;3.22;;
33403;SDS011;19751;40.274;18.268;2023-08-01T11:48:58;3.25;;;3.00;;
33403;SDS011;19751;40.274;18.268;2023-08-01T11:51:25;3.83;;;3.10;;
33403;SDS011;19751;40.274;18.268;2023-08-01T11:53:58;5.78;;;3.40;;
33403;SDS011;19751;40.274;18.268;2023-08-01T11:56:25;3.55;;;3.25;;
33403;SDS011;19751;40.274;18.268;2023-08-01T11:58:51;3.47;;;2.50;;
33403;SDS011;19751;40.274;18.268;2023-08-01T12:01:16;3.10;;;2.90;;
33403;SDS011;19751;40.274;18.268;2023-08-01T12:03:46;3.15;;;2.95;;
33403;SDS011;19751;40.274;18.268;2023-08-01T12:06:19;3.58;;;3.22;;
33403;SDS011;19751;40.274;18.268;2023-08-01T12:08:51;3.63;;;3.33;;
33403;SDS011;19751;40.274;18.268;2023-08-01T12:11:22;4.45;;;4.00;;
33403;SDS011;19751;40.274;18.268;2023-08-01T12:16:35;3.28;;;2.97;;
33403;SDS011;19751;40.274;18.268;2023-08-01T12:19:04;4.95;;;4.15;;
33403;SDS011;19751;40.274;18.268;2023-08-01T12:21:31;3.78;;;3.22;;
33403;SDS011;19751;40.274;18.268;2023-08-01T12:23:58;4.20;;;3.90;;
33403;SDS011;19751;40.274;18.268;2023-08-01T12:26:23;4.28;;;3.88;;
33403;SDS011;19751;40.274;18.268;2023-08-01T12:28:49;4.25;;;3.95;;
33403;SDS011;19751;40.274;18.268;2023-08-01T12:31:18;4.85;;;4.40;;
33403;SDS011;19751;40.274;18.268;2023-08-01T12:33:45;4.50;;;4.03;;
33403;SDS011;19751;40.274;18.268;2023-08-01T12:36:11;5.28;;;4.82;;
33403;SDS011;19751;40.274;18.268;2023-08-01T12:38:37;5.25;;;4.75;;
33403;SDS011;19751;40.274;18.268;2023-08-01T12:41:03;5.38;;;4.88;;
33403;SDS011;19751;40.274;18.268;2023-08-01T12:43:28;5.25;;;4.85;;
33403;SDS011;19751;40.274;18.268;2023-08-01T12:45:54;5.30;;;4.85;;
33403;SDS011;19751;40.274;18.268;2023-08-01T12:48:21;5.32;;;4.82;;
33403;SDS011;19751;40.274;18.268;2023-08-01T12:50:47;5.10;;;4.70;;
33403;SDS011;19751;40.274;18.268;2023-08-01T12:53:13;4.68;;;4.28;;
33403;SDS011;19751;40.274;18.268;2023-08-01T12:55:49;5.53;;;4.70;;
33403;SDS011;19751;40.274;18.268;2023-08-01T12:58:15;5.70;;;5.20;;
33403;SDS011;19751;40.274;18.268;2023-08-01T13:00:42;5.88;;;5.28;;
33403;SDS011;19751;40.274;18.268;2023-08-01T13:03:08;5.10;;;4.60;;
33403;SDS011;19751;40.274;18.268;2023-08-01T13:05:35;5.07;;;4.57;;
33403;SDS011;19751;40.274;18.268;2023-08-01T13:08:01;6.28;;;5.10;;
33403;SDS011;19751;40.274;18.268;2023-08-01T13:10:31;4.90;;;4.40;;
33403;SDS011;19751;40.274;18.268;2023-08-01T13:12:57;4.63;;;4.28;;
33403;SDS011;19751;40.274;18.268;2023-08-01T13:15:23;5.43;;;4.72;;
33403;SDS011;19751;40.274;18.268;2023-08-01T13:17:49;5.45;;;4.97;;
33403;SDS011;19751;40.274;18.268;2023-08-01T13:20:15;6.25;;;4.60;;
33403;SDS011;19751;40.274;18.268;2023-08-01T13:22:41;6.72;;;5.07;;
33403;SDS011;19751;40.274;18.268;2023-08-01T13:25:07;5.82;;;5.32;;
33403;SDS011;19751;40.274;18.268;2023-08-01T13:27:34;6.47;;;5.80;;
33403;SDS011;19751;40.274;18.268;2023-08-01T13:30:01;5.78;;;5.28;;
33403;SDS011;19751;40.274;18.268;2023-08-01T13:32:27;5.32;;;4.70;;
33403;SDS011;19751;40.274;18.268;2023-08-01T13:34:53;5.10;;;4.60;;
33403;SDS011;19751;40.274;18.268;2023-08-01T13:37:18;6.05;;;5.55;;
33403;SDS011;19751;40.274;18.268;2023-08-01T13:39:44;5.45;;;4.95;;
33403;SDS011;19751;40.274;18.268;2023-08-01T13:42:11;4.97;;;4.57;;
33403;SDS011;19751;40.274;18.268;2023-08-01T13:44:37;7.80;;;5.00;;
33403;SDS011;19751;40.274;18.268;2023-08-01T13:47:02;4.82;;;4.43;;
33403;SDS011;19751;40.274;18.268;2023-08-01T13:49:29;4.95;;;4.55;;
33403;SDS011;19751;40.274;18.268;2023-08-01T13:51:54;5.20;;;4.80;;
33403;SDS011;19751;40.274;18.268;2023-08-01T13:54:20;5.35;;;4.85;;
33403;SDS011;19751;40.274;18.268;2023-08-01T13:56:45;5.95;;;5.22;;
33403;SDS011;19751;40.274;18.268;2023-08-01T13:59:11;4.90;;;4.50;;
33403;SDS011;19751;40.274;18.268;2023-08-01T14:01:36;6.30;;;5.18;;
33403;SDS011;19751;40.274;18.268;2023-08-01T14:04:03;7.22;;;6.50;;
33403;SDS011;19751;40.274;18.268;2023-08-01T14:06:29;6.07;;;5.57;;
33403;SDS011;19751;40.274;18.268;2023-08-01T14:08:55;6.03;;;5.35;;
33403;SDS011;19751;40.274;18.268;2023-08-01T14:11:20;5.35;;;4.82;;
33403;SDS011;19751;40.274;18.268;2023-08-01T14:13:46;5.28;;;4.88;;
33403;SDS011;19751;40.274;18.268;2023-08-01T14:16:12;5.88;;;5.30;;
33403;SDS011;19751;40.274;18.268;2023-08-01T14:18:37;5.90;;;5.40;;
33403;SDS011;19751;40.274;18.268;2023-08-01T14:21:03;5.35;;;4.88;;
33403;SDS011;19751;40.274;18.268;2023-08-01T14:23:30;5.50;;;5.00;;
33403;SDS011;19751;40.274;18.268;2023-08-01T14:25:57;5.78;;;5.28;;
33403;SDS011;19751;40.274;18.268;2023-08-01T14:28:23;5.20;;;4.80;;
33403;SDS011;19751;40.274;18.268;2023-08-01T14:30:48;6.07;;;4.80;;
33403;SDS011;19751;40.274;18.268;2023-08-01T14:33:14;6.35;;;5.38;;
33403;SDS011;19751;40.274;18.268;2023-08-01T14:35:40;7.05;;;5.97;;
33403;SDS011;19751;40.274;18.268;2023-08-01T14:38:05;6.75;;;5.78;;